메인 페이지
METAR-TAF:

METAR-TAF

공항 :

파리 샤를 드 골 공항

파리찰스 드골, 프랑스

위도: 49-01N, 경도: 002-32E, 고도: 118m

현재 날씨관측

예보는 22분 전, 04:30시(UTC)에 발표되었습니다.
6kt
온도 9°C
습도 100%
기압 1028 hPa
시정: 2500m
박무

METAR: LFPG 220430Z 01006KT 2500 BR NSC 09/09 Q1028 NOSIG

시각: 06:52 (04:52 UTC)

예보

예보는 37분 전, 04:15시(UTC)에 발표되었습니다.
예보 대상 시간: 22일 04시부터 23일 06시까지 (UTC)
5kt
시정: 4000m
박무
일시적
22일 04시부터 22일 10시까지 (UTC)
시정: 0500m
고도 100ft 상공 구름 많음
안개
전환 중
22일 10시부터 22일 12시까지 (UTC)
시정 10km 이상
고도 1500ft 상공 구름 많음
일시적
22일 12시부터 22일 16시까지 (UTC)
15kt, 순간 최대 풍속 25kt
확률 30%
23일 03시부터 23일 06시까지 (UTC)
시정: 3000m
박무

TAF: LFPG 220415Z 2204/2306 36005KT 4000 BR NSC TX16/2214Z TN05/2306Z TEMPO 2204/2210 0500 FG BKN001 BECMG 2210/2212 9999 NSW BKN015 TEMPO 2212/2216 01015G25KT PROB30 2303/2306 3000 BR

4,000개 이상의 공항 관측 자료 및 예보 (METAR 및 TAF 보고).

지도상에서 검색 가능한 기상관측소가 노란 점과 빨간 점으로 표시되어 있습니다.

기상관측소 명을 보려면 표시 위로 마우스를 이동하세요.

날씨 관측과 예보를 보려면 클릭하세요.

지도 변경 : 확대하려면 엑스 표시가 있는 녹색 버튼, 축소하려면 빼기 표시가 있는 녹색 버튼, 다음 페이지의 지도를 보려면 녹색 화살표를 클릭하세요.


METAR-TAF: